WIF399 EGPD-ENBR
Flight info
| Callsign | WIF399 |
|---|---|
| Flight time | 1h 3m |
| Altitude | 23000 |
| Route | ADN DCT BEREP DCT MODNI |
| Aircraft | DH8D/M-SDE2E3FGRY/H |
Departure
| Time | 2026-05-07 17:18 |
|---|---|
| Airport | Aberdeen International Airport (EGPD) |
Arrival
| Time | 2026-05-07 18:22 |
|---|---|
| Airport | Bergen Airport, Flesland (ENBR) |
| Time | Latitude | Longitude | Altitude | Speed | Heading |
|---|---|---|---|---|---|
| 2026-05-07 17:16 | 57.20958 | -2.20348 | 211 ft | 0 kts | 147° |
| 2026-05-07 17:17 | 57.20950 | -2.20340 | 210 ft | 8 kts | 156° |
| 2026-05-07 17:17 | 57.20777 | -2.20212 | 207 ft | 62 kts | 158° |
| 2026-05-07 17:17 | 57.20126 | -2.19729 | 216 ft | 130 kts | 159° |
| 2026-05-07 17:18 | 57.19262 | -2.19088 | 682 ft | 140 kts | 162° |
| 2026-05-07 17:18 | 57.18354 | -2.18487 | 1444 ft | 139 kts | 164° |
| 2026-05-07 17:18 | 57.17783 | -2.17968 | 1927 ft | 143 kts | 147° |
| 2026-05-07 17:18 | 57.17559 | -2.15592 | 2727 ft | 169 kts | 69° |
| 2026-05-07 17:19 | 57.18280 | -2.13811 | 3383 ft | 178 kts | 53° |
| 2026-05-07 17:19 | 57.19104 | -2.12068 | 4032 ft | 185 kts | 52° |
| 2026-05-07 17:19 | 57.19663 | -2.10912 | 4481 ft | 188 kts | 51° |
| 2026-05-07 17:19 | 57.20846 | -2.08522 | 5428 ft | 193 kts | 50° |
| 2026-05-07 17:20 | 57.21748 | -2.06723 | 6129 ft | 196 kts | 50° |
| 2026-05-07 17:20 | 57.22701 | -2.04844 | 6690 ft | 207 kts | 49° |
| 2026-05-07 17:20 | 57.23705 | -2.02882 | 7295 ft | 214 kts | 49° |
| 2026-05-07 17:20 | 57.24724 | -2.00899 | 7945 ft | 218 kts | 48° |
| 2026-05-07 17:21 | 57.25778 | -1.98854 | 8631 ft | 221 kts | 48° |
| 2026-05-07 17:21 | 57.26836 | -1.96802 | 9339 ft | 223 kts | 48° |
| 2026-05-07 17:21 | 57.27896 | -1.94746 | 10041 ft | 224 kts | 47° |
| 2026-05-07 17:21 | 57.28968 | -1.92666 | 10714 ft | 225 kts | 47° |
| 2026-05-07 17:22 | 57.30044 | -1.90573 | 11416 ft | 227 kts | 47° |
| 2026-05-07 17:22 | 57.31123 | -1.88474 | 12095 ft | 228 kts | 47° |
| 2026-05-07 17:22 | 57.32199 | -1.86379 | 12769 ft | 229 kts | 47° |
| 2026-05-07 17:22 | 57.32927 | -1.84960 | 13217 ft | 230 kts | 47° |
| 2026-05-07 17:23 | 57.34385 | -1.82116 | 14099 ft | 231 kts | 46° |
| 2026-05-07 17:23 | 57.35515 | -1.79910 | 14646 ft | 240 kts | 46° |
| 2026-05-07 17:23 | 57.36667 | -1.77659 | 15203 ft | 246 kts | 47° |
| 2026-05-07 17:23 | 57.37843 | -1.75362 | 15791 ft | 251 kts | 47° |
| 2026-05-07 17:24 | 57.39050 | -1.73002 | 16407 ft | 255 kts | 47° |
| 2026-05-07 17:24 | 57.40258 | -1.70636 | 17024 ft | 258 kts | 47° |
| 2026-05-07 17:24 | 57.41492 | -1.68216 | 17649 ft | 261 kts | 47° |
| 2026-05-07 17:24 | 57.42738 | -1.65771 | 18281 ft | 263 kts | 48° |
| 2026-05-07 17:25 | 57.43988 | -1.63315 | 18915 ft | 265 kts | 48° |
| 2026-05-07 17:25 | 57.45247 | -1.60838 | 19543 ft | 267 kts | 48° |
| 2026-05-07 17:25 | 57.46518 | -1.58334 | 20159 ft | 269 kts | 48° |
| 2026-05-07 17:25 | 57.47796 | -1.55814 | 20773 ft | 271 kts | 47° |
| 2026-05-07 17:26 | 57.49089 | -1.53262 | 21382 ft | 273 kts | 47° |
| 2026-05-07 17:26 | 57.50392 | -1.50686 | 21989 ft | 275 kts | 47° |
| 2026-05-07 17:26 | 57.51703 | -1.48090 | 22582 ft | 278 kts | 47° |
| 2026-05-07 17:26 | 57.53054 | -1.45412 | 22868 ft | 295 kts | 47° |
| 2026-05-07 17:27 | 57.54521 | -1.42500 | 22962 ft | 319 kts | 47° |
| 2026-05-07 17:27 | 57.56073 | -1.39420 | 22989 ft | 343 kts | 47° |
| 2026-05-07 17:27 | 57.57771 | -1.36048 | 22992 ft | 364 kts | 47° |
| 2026-05-07 17:27 | 57.59528 | -1.32556 | 22987 ft | 377 kts | 48° |
| 2026-05-07 17:28 | 57.61301 | -1.29035 | 22974 ft | 374 kts | 47° |
| 2026-05-07 17:28 | 57.63075 | -1.25510 | 22978 ft | 371 kts | 47° |
| 2026-05-07 17:28 | 57.64823 | -1.22025 | 22980 ft | 369 kts | 48° |
| 2026-05-07 17:28 | 57.66566 | -1.18541 | 22977 ft | 367 kts | 47° |
| 2026-05-07 17:29 | 57.68291 | -1.15085 | 22982 ft | 365 kts | 48° |
| 2026-05-07 17:29 | 57.70027 | -1.11601 | 22985 ft | 364 kts | 48° |
| 2026-05-07 17:29 | 57.71734 | -1.08167 | 22986 ft | 363 kts | 48° |
| 2026-05-07 17:29 | 57.73434 | -1.04742 | 22991 ft | 361 kts | 48° |
| 2026-05-07 17:30 | 57.75154 | -1.01272 | 22996 ft | 361 kts | 48° |
| 2026-05-07 17:30 | 57.76851 | -0.97841 | 22995 ft | 360 kts | 48° |
| 2026-05-07 17:30 | 57.78544 | -0.94413 | 22998 ft | 359 kts | 48° |
| 2026-05-07 17:30 | 57.80224 | -0.91007 | 23004 ft | 359 kts | 47° |
| 2026-05-07 17:31 | 57.81925 | -0.87553 | 23004 ft | 358 kts | 47° |
| 2026-05-07 17:31 | 57.83606 | -0.84134 | 23000 ft | 358 kts | 47° |
| 2026-05-07 17:31 | 57.85281 | -0.80722 | 22998 ft | 358 kts | 47° |
| 2026-05-07 17:31 | 57.86959 | -0.77299 | 23001 ft | 358 kts | 47° |
| 2026-05-07 17:32 | 57.88650 | -0.73842 | 23005 ft | 358 kts | 47° |
| 2026-05-07 17:32 | 57.90331 | -0.70405 | 23004 ft | 358 kts | 47° |
| 2026-05-07 17:32 | 57.91999 | -0.66987 | 23004 ft | 358 kts | 47° |
| 2026-05-07 17:32 | 57.93114 | -0.64699 | 23001 ft | 358 kts | 47° |
| 2026-05-07 17:33 | 57.95346 | -0.60111 | 23009 ft | 358 kts | 47° |
| 2026-05-07 17:33 | 57.97036 | -0.56633 | 23011 ft | 358 kts | 47° |
| 2026-05-07 17:33 | 57.98707 | -0.53189 | 23011 ft | 358 kts | 47° |
| 2026-05-07 17:33 | 58.00380 | -0.49734 | 23010 ft | 358 kts | 47° |
| 2026-05-07 17:34 | 58.02049 | -0.46284 | 23009 ft | 358 kts | 47° |
| 2026-05-07 17:34 | 58.03727 | -0.42808 | 23017 ft | 358 kts | 47° |
| 2026-05-07 17:34 | 58.05391 | -0.39357 | 23015 ft | 358 kts | 47° |
| 2026-05-07 17:34 | 58.07055 | -0.35902 | 23016 ft | 358 kts | 47° |
| 2026-05-07 17:35 | 58.08727 | -0.32422 | 23012 ft | 358 kts | 48° |
| 2026-05-07 17:35 | 58.10416 | -0.28906 | 23018 ft | 358 kts | 48° |
| 2026-05-07 17:35 | 58.12080 | -0.25433 | 23020 ft | 358 kts | 48° |
| 2026-05-07 17:35 | 58.13737 | -0.21970 | 23027 ft | 357 kts | 48° |
| 2026-05-07 17:36 | 58.15411 | -0.18469 | 23023 ft | 357 kts | 48° |
| 2026-05-07 17:36 | 58.17057 | -0.15018 | 23022 ft | 357 kts | 48° |
| 2026-05-07 17:36 | 58.18730 | -0.11506 | 23022 ft | 358 kts | 48° |
| 2026-05-07 17:36 | 58.20383 | -0.08032 | 23019 ft | 358 kts | 47° |
| 2026-05-07 17:37 | 58.22045 | -0.04534 | 23020 ft | 358 kts | 48° |
| 2026-05-07 17:37 | 58.23694 | -0.01056 | 23028 ft | 359 kts | 48° |
| 2026-05-07 17:37 | 58.25382 | 0.02511 | 23032 ft | 361 kts | 48° |
| 2026-05-07 17:37 | 58.27051 | 0.06042 | 23034 ft | 363 kts | 47° |
| 2026-05-07 17:38 | 58.28740 | 0.09620 | 23034 ft | 365 kts | 48° |
| 2026-05-07 17:38 | 58.30432 | 0.13212 | 23033 ft | 368 kts | 47° |
| 2026-05-07 17:38 | 58.32137 | 0.16834 | 22998 ft | 371 kts | 48° |
| 2026-05-07 17:38 | 58.33866 | 0.20514 | 22986 ft | 373 kts | 48° |
| 2026-05-07 17:39 | 58.35603 | 0.24218 | 22982 ft | 375 kts | 47° |
| 2026-05-07 17:39 | 58.37331 | 0.27910 | 22986 ft | 376 kts | 47° |
| 2026-05-07 17:39 | 58.39075 | 0.31638 | 22992 ft | 377 kts | 47° |
| 2026-05-07 17:39 | 58.40794 | 0.35321 | 22994 ft | 378 kts | 47° |
| 2026-05-07 17:40 | 58.42556 | 0.39099 | 22991 ft | 379 kts | 47° |
| 2026-05-07 17:40 | 58.44298 | 0.42843 | 22992 ft | 379 kts | 47° |
| 2026-05-07 17:40 | 58.46038 | 0.46587 | 22991 ft | 379 kts | 47° |
| 2026-05-07 17:40 | 58.47776 | 0.50335 | 22995 ft | 379 kts | 47° |
| 2026-05-07 17:41 | 58.49515 | 0.54089 | 22995 ft | 380 kts | 47° |
| 2026-05-07 17:41 | 58.51271 | 0.57888 | 22997 ft | 380 kts | 47° |
| 2026-05-07 17:41 | 58.53010 | 0.61655 | 22998 ft | 380 kts | 47° |
| 2026-05-07 17:41 | 58.54749 | 0.65429 | 23000 ft | 380 kts | 48° |
| 2026-05-07 17:42 | 58.55919 | 0.67970 | 22994 ft | 381 kts | 48° |
| 2026-05-07 17:42 | 58.58241 | 0.73024 | 22997 ft | 381 kts | 48° |
| 2026-05-07 17:42 | 58.59990 | 0.76837 | 23000 ft | 381 kts | 48° |
| 2026-05-07 17:42 | 58.61734 | 0.80646 | 23004 ft | 381 kts | 48° |
| 2026-05-07 17:43 | 58.63469 | 0.84441 | 23004 ft | 381 kts | 48° |
| 2026-05-07 17:43 | 58.65213 | 0.88262 | 23001 ft | 381 kts | 48° |
| 2026-05-07 17:43 | 58.66950 | 0.92075 | 23006 ft | 381 kts | 48° |
| 2026-05-07 17:43 | 58.68684 | 0.95887 | 23007 ft | 382 kts | 48° |
| 2026-05-07 17:44 | 58.70436 | 0.99743 | 23009 ft | 382 kts | 48° |
| 2026-05-07 17:44 | 58.72163 | 1.03553 | 23010 ft | 382 kts | 48° |
| 2026-05-07 17:44 | 58.73914 | 1.07422 | 23013 ft | 382 kts | 48° |
| 2026-05-07 17:44 | 58.75648 | 1.11259 | 23014 ft | 382 kts | 48° |
| 2026-05-07 17:45 | 58.77384 | 1.15109 | 23014 ft | 382 kts | 48° |
| 2026-05-07 17:45 | 58.79107 | 1.18935 | 23020 ft | 382 kts | 47° |
| 2026-05-07 17:45 | 58.80861 | 1.22837 | 23017 ft | 382 kts | 47° |
| 2026-05-07 17:45 | 58.82582 | 1.26669 | 23022 ft | 382 kts | 47° |
| 2026-05-07 17:46 | 58.84309 | 1.30524 | 23021 ft | 382 kts | 47° |
| 2026-05-07 17:46 | 58.86040 | 1.34393 | 23026 ft | 382 kts | 48° |
| 2026-05-07 17:46 | 58.87761 | 1.38245 | 23026 ft | 382 kts | 47° |
| 2026-05-07 17:46 | 58.89495 | 1.42134 | 23029 ft | 382 kts | 47° |
| 2026-05-07 17:47 | 58.91229 | 1.46030 | 23032 ft | 382 kts | 47° |
| 2026-05-07 17:47 | 58.92956 | 1.49917 | 23030 ft | 382 kts | 47° |
| 2026-05-07 17:47 | 58.94096 | 1.52486 | 23030 ft | 383 kts | 47° |
| 2026-05-07 17:47 | 58.96414 | 1.57716 | 23032 ft | 383 kts | 47° |
| 2026-05-07 17:48 | 58.98145 | 1.61631 | 23034 ft | 383 kts | 47° |
| 2026-05-07 17:48 | 58.99867 | 1.65531 | 23034 ft | 383 kts | 48° |
| 2026-05-07 17:48 | 59.01599 | 1.69463 | 23037 ft | 383 kts | 48° |
| 2026-05-07 17:48 | 59.02739 | 1.72051 | 23034 ft | 383 kts | 48° |
| 2026-05-07 17:49 | 59.05071 | 1.77264 | 23037 ft | 382 kts | 46° |
| 2026-05-07 17:49 | 59.06850 | 1.81056 | 23039 ft | 382 kts | 46° |
| 2026-05-07 17:49 | 59.08645 | 1.84879 | 23041 ft | 382 kts | 45° |
| 2026-05-07 17:49 | 59.10426 | 1.88682 | 23044 ft | 382 kts | 45° |
| 2026-05-07 17:50 | 59.12191 | 1.92462 | 23050 ft | 382 kts | 45° |
| 2026-05-07 17:50 | 59.13979 | 1.96302 | 23047 ft | 382 kts | 45° |
| 2026-05-07 17:50 | 59.15763 | 2.00145 | 23050 ft | 382 kts | 45° |
| 2026-05-07 17:50 | 59.17536 | 2.03970 | 23048 ft | 382 kts | 46° |
| 2026-05-07 17:51 | 59.19301 | 2.07787 | 23053 ft | 382 kts | 45° |
| 2026-05-07 17:51 | 59.20493 | 2.10370 | 23053 ft | 382 kts | 46° |
| 2026-05-07 17:51 | 59.22861 | 2.15509 | 23054 ft | 382 kts | 45° |
| 2026-05-07 17:51 | 59.24618 | 2.19329 | 23054 ft | 382 kts | 45° |
| 2026-05-07 17:52 | 59.25803 | 2.21908 | 23056 ft | 382 kts | 45° |
| 2026-05-07 17:52 | 59.28171 | 2.27077 | 23061 ft | 382 kts | 45° |
| 2026-05-07 17:52 | 59.29340 | 2.29632 | 23058 ft | 383 kts | 45° |
| 2026-05-07 17:52 | 59.31690 | 2.34778 | 23067 ft | 383 kts | 45° |
| 2026-05-07 17:53 | 59.32873 | 2.37373 | 23057 ft | 383 kts | 45° |
| 2026-05-07 17:53 | 59.35234 | 2.42561 | 23064 ft | 382 kts | 45° |
| 2026-05-07 17:53 | 59.36409 | 2.45148 | 23064 ft | 382 kts | 45° |
| 2026-05-07 17:53 | 59.38744 | 2.50296 | 23068 ft | 382 kts | 45° |
| 2026-05-07 17:54 | 59.39926 | 2.52907 | 23068 ft | 382 kts | 45° |
| 2026-05-07 17:54 | 59.41695 | 2.56817 | 23068 ft | 383 kts | 45° |
| 2026-05-07 17:54 | 59.43447 | 2.60699 | 23063 ft | 383 kts | 45° |
| 2026-05-07 17:54 | 59.45213 | 2.64617 | 23066 ft | 383 kts | 45° |
| 2026-05-07 17:55 | 59.46948 | 2.68473 | 23065 ft | 382 kts | 46° |
| 2026-05-07 17:55 | 59.48708 | 2.72393 | 23065 ft | 383 kts | 46° |
| 2026-05-07 17:55 | 59.50465 | 2.76312 | 23062 ft | 383 kts | 46° |
| 2026-05-07 17:55 | 59.52817 | 2.81567 | 23065 ft | 383 kts | 46° |
| 2026-05-07 17:56 | 59.53979 | 2.84170 | 23065 ft | 383 kts | 45° |
| 2026-05-07 17:56 | 59.56298 | 2.89368 | 23061 ft | 383 kts | 45° |
| 2026-05-07 17:56 | 59.58053 | 2.93310 | 23067 ft | 382 kts | 45° |
| 2026-05-07 17:56 | 59.59805 | 2.97260 | 23079 ft | 381 kts | 45° |
| 2026-05-07 17:57 | 59.61544 | 3.01183 | 23089 ft | 381 kts | 45° |
| 2026-05-07 17:57 | 59.62707 | 3.03808 | 23067 ft | 381 kts | 45° |
| 2026-05-07 17:57 | 59.65015 | 3.09029 | 23070 ft | 381 kts | 45° |
| 2026-05-07 17:57 | 59.66754 | 3.12969 | 23063 ft | 374 kts | 45° |
| 2026-05-07 17:58 | 59.67878 | 3.15517 | 23063 ft | 365 kts | 45° |
| 2026-05-07 17:58 | 59.69511 | 3.19227 | 23061 ft | 353 kts | 45° |
| 2026-05-07 17:58 | 59.71627 | 3.24038 | 22851 ft | 347 kts | 45° |
| 2026-05-07 17:58 | 59.73200 | 3.27618 | 22517 ft | 349 kts | 45° |
| 2026-05-07 17:59 | 59.74255 | 3.30022 | 22277 ft | 350 kts | 45° |
| 2026-05-07 17:59 | 59.76391 | 3.34901 | 21753 ft | 353 kts | 45° |
| 2026-05-07 17:59 | 59.77452 | 3.37329 | 21495 ft | 355 kts | 45° |
| 2026-05-07 17:59 | 59.79616 | 3.42293 | 20959 ft | 356 kts | 46° |
| 2026-05-07 18:00 | 59.80687 | 3.44754 | 20703 ft | 356 kts | 46° |
| 2026-05-07 18:00 | 59.82844 | 3.49720 | 20172 ft | 356 kts | 46° |
| 2026-05-07 18:00 | 59.84437 | 3.53395 | 19779 ft | 356 kts | 46° |
| 2026-05-07 18:00 | 59.86060 | 3.57145 | 19382 ft | 355 kts | 46° |
| 2026-05-07 18:01 | 59.87652 | 3.60832 | 18994 ft | 354 kts | 46° |
| 2026-05-07 18:01 | 59.88715 | 3.63300 | 18738 ft | 353 kts | 46° |
| 2026-05-07 18:01 | 59.90828 | 3.68225 | 18211 ft | 350 kts | 47° |
| 2026-05-07 18:01 | 59.92412 | 3.71904 | 17818 ft | 349 kts | 47° |
| 2026-05-07 18:02 | 59.95541 | 3.79189 | 17047 ft | 345 kts | 47° |
| 2026-05-07 18:02 | 59.97076 | 3.82772 | 16669 ft | 344 kts | 47° |
| 2026-05-07 18:02 | 59.98629 | 3.86405 | 16284 ft | 342 kts | 47° |
| 2026-05-07 18:03 | 60.00159 | 3.89988 | 15907 ft | 341 kts | 47° |
| 2026-05-07 18:03 | 60.01693 | 3.93589 | 15528 ft | 339 kts | 48° |
| 2026-05-07 18:03 | 60.03170 | 3.97229 | 15116 ft | 339 kts | 54° |
| 2026-05-07 18:03 | 60.04065 | 4.01523 | 14791 ft | 335 kts | 75° |
| 2026-05-07 18:04 | 60.04633 | 4.06076 | 14394 ft | 335 kts | 77° |
| 2026-05-07 18:04 | 60.05178 | 4.10565 | 14021 ft | 333 kts | 77° |
| 2026-05-07 18:04 | 60.05715 | 4.15033 | 13655 ft | 332 kts | 77° |
| 2026-05-07 18:04 | 60.06253 | 4.19506 | 13292 ft | 330 kts | 77° |
| 2026-05-07 18:05 | 60.06786 | 4.23947 | 12927 ft | 329 kts | 77° |
| 2026-05-07 18:05 | 60.07318 | 4.28371 | 12559 ft | 323 kts | 77° |
| 2026-05-07 18:05 | 60.07664 | 4.31227 | 12314 ft | 313 kts | 77° |
| 2026-05-07 18:05 | 60.08326 | 4.36700 | 11861 ft | 295 kts | 78° |
| 2026-05-07 18:06 | 60.08794 | 4.40582 | 11537 ft | 282 kts | 78° |
| 2026-05-07 18:06 | 60.09247 | 4.44343 | 11233 ft | 270 kts | 78° |
| 2026-05-07 18:06 | 60.09673 | 4.47901 | 10939 ft | 258 kts | 78° |
| 2026-05-07 18:06 | 60.10080 | 4.51300 | 10656 ft | 246 kts | 78° |
| 2026-05-07 18:07 | 60.10475 | 4.54668 | 10404 ft | 253 kts | 79° |
| 2026-05-07 18:07 | 60.10877 | 4.58137 | 10117 ft | 260 kts | 79° |
| 2026-05-07 18:07 | 60.11289 | 4.61661 | 9825 ft | 266 kts | 79° |
| 2026-05-07 18:07 | 60.11706 | 4.65294 | 9514 ft | 267 kts | 82° |
| 2026-05-07 18:08 | 60.11732 | 4.68940 | 9218 ft | 261 kts | 102° |
| 2026-05-07 18:08 | 60.11417 | 4.72525 | 8915 ft | 260 kts | 104° |
| 2026-05-07 18:08 | 60.11090 | 4.76051 | 8634 ft | 259 kts | 104° |
| 2026-05-07 18:08 | 60.10634 | 4.79529 | 8174 ft | 257 kts | 120° |
| 2026-05-07 18:09 | 60.09436 | 4.81873 | 7982 ft | 230 kts | 158° |
| 2026-05-07 18:09 | 60.07947 | 4.82441 | 7854 ft | 214 kts | 176° |
| 2026-05-07 18:09 | 60.06493 | 4.82604 | 7719 ft | 202 kts | 178° |
| 2026-05-07 18:09 | 60.05117 | 4.82719 | 7547 ft | 193 kts | 176° |
| 2026-05-07 18:10 | 60.04266 | 4.83010 | 7436 ft | 186 kts | 165° |
| 2026-05-07 18:10 | 60.02718 | 4.84165 | 7274 ft | 169 kts | 160° |
| 2026-05-07 18:10 | 60.02008 | 4.84719 | 7204 ft | 160 kts | 160° |
| 2026-05-07 18:10 | 60.00561 | 4.85805 | 7126 ft | 179 kts | 161° |
| 2026-05-07 18:11 | 59.99754 | 4.86393 | 7057 ft | 192 kts | 161° |
| 2026-05-07 18:11 | 59.98551 | 4.87716 | 6929 ft | 204 kts | 144° |
| 2026-05-07 18:11 | 59.97063 | 4.90209 | 6750 ft | 218 kts | 142° |
| 2026-05-07 18:11 | 59.95896 | 4.92197 | 6592 ft | 218 kts | 142° |
| 2026-05-07 18:12 | 59.94777 | 4.94214 | 6451 ft | 217 kts | 134° |
| 2026-05-07 18:12 | 59.94197 | 4.95828 | 6376 ft | 217 kts | 124° |
| 2026-05-07 18:12 | 59.93206 | 4.99268 | 6212 ft | 215 kts | 123° |
| 2026-05-07 18:12 | 59.92470 | 5.01840 | 6092 ft | 214 kts | 123° |
| 2026-05-07 18:13 | 59.91793 | 5.04510 | 5949 ft | 216 kts | 111° |
| 2026-05-07 18:13 | 59.91567 | 5.06473 | 5870 ft | 220 kts | 103° |
| 2026-05-07 18:13 | 59.91263 | 5.10537 | 5683 ft | 226 kts | 102° |
| 2026-05-07 18:13 | 59.91282 | 5.13706 | 5360 ft | 239 kts | 76° |
| 2026-05-07 18:14 | 59.92257 | 5.16305 | 5238 ft | 241 kts | 36° |
| 2026-05-07 18:14 | 59.93855 | 5.17186 | 5152 ft | 239 kts | 2° |
| 2026-05-07 18:14 | 59.95503 | 5.17067 | 5011 ft | 239 kts | 358° |
| 2026-05-07 18:14 | 59.97165 | 5.16882 | 4863 ft | 238 kts | 358° |
| 2026-05-07 18:15 | 59.98795 | 5.16700 | 4716 ft | 237 kts | 358° |
| 2026-05-07 18:15 | 60.00449 | 5.16526 | 4570 ft | 236 kts | 358° |
| 2026-05-07 18:15 | 60.02075 | 5.16362 | 4417 ft | 235 kts | 358° |
| 2026-05-07 18:15 | 60.03690 | 5.16205 | 4288 ft | 233 kts | 358° |
| 2026-05-07 18:16 | 60.05303 | 5.16053 | 4153 ft | 232 kts | 358° |
| 2026-05-07 18:16 | 60.06900 | 5.16351 | 3904 ft | 228 kts | 24° |
| 2026-05-07 18:16 | 60.08038 | 5.18300 | 3736 ft | 212 kts | 58° |
| 2026-05-07 18:16 | 60.08786 | 5.20773 | 3545 ft | 206 kts | 62° |
| 2026-05-07 18:17 | 60.09493 | 5.23222 | 3349 ft | 201 kts | 62° |
| 2026-05-07 18:17 | 60.10186 | 5.25630 | 3131 ft | 198 kts | 59° |
| 2026-05-07 18:17 | 60.11194 | 5.27394 | 2839 ft | 199 kts | 19° |
| 2026-05-07 18:17 | 60.12549 | 5.27357 | 2638 ft | 193 kts | 344° |
| 2026-05-07 18:18 | 60.13826 | 5.26834 | 2464 ft | 187 kts | 357° |
| 2026-05-07 18:18 | 60.15089 | 5.26599 | 2348 ft | 176 kts | 352° |
| 2026-05-07 18:18 | 60.16259 | 5.26181 | 2217 ft | 169 kts | 351° |
| 2026-05-07 18:18 | 60.17382 | 5.25805 | 2175 ft | 159 kts | 352° |
| 2026-05-07 18:19 | 60.18469 | 5.25463 | 2161 ft | 158 kts | 352° |
| 2026-05-07 18:19 | 60.19567 | 5.25103 | 1979 ft | 157 kts | 351° |
| 2026-05-07 18:19 | 60.20579 | 5.24747 | 1794 ft | 142 kts | 351° |
| 2026-05-07 18:19 | 60.21526 | 5.24431 | 1545 ft | 135 kts | 352° |
| 2026-05-07 18:20 | 60.22443 | 5.24136 | 1366 ft | 134 kts | 352° |
| 2026-05-07 18:20 | 60.23386 | 5.23838 | 1206 ft | 142 kts | 351° |
| 2026-05-07 18:20 | 60.24335 | 5.23509 | 984 ft | 135 kts | 350° |
| 2026-05-07 18:20 | 60.25233 | 5.23193 | 768 ft | 128 kts | 349° |
| 2026-05-07 18:21 | 60.26094 | 5.22896 | 627 ft | 126 kts | 350° |
| 2026-05-07 18:21 | 60.26963 | 5.22611 | 451 ft | 127 kts | 351° |
| 2026-05-07 18:21 | 60.27839 | 5.22320 | 285 ft | 128 kts | 350° |
| 2026-05-07 18:21 | 60.28715 | 5.22026 | 162 ft | 120 kts | 349° |
| 2026-05-07 18:22 | 60.29198 | 5.21860 | 158 ft | 49 kts | 350° |
| 2026-05-07 18:22 | 60.29297 | 5.21826 | 154 ft | 32 kts | 349° |
| 2026-05-07 18:22 | 60.29386 | 5.21975 | 155 ft | 7 kts | 83° |
| 2026-05-07 18:22 | 60.29390 | 5.22073 | 157 ft | 5 kts | 99° |
| 2026-05-07 18:23 | 60.29379 | 5.22123 | 158 ft | 3 kts | 149° |
| 2026-05-07 18:23 | 60.29296 | 5.22151 | 160 ft | 18 kts | 170° |
| 2026-05-07 18:23 | 60.29179 | 5.22191 | 164 ft | 15 kts | 170° |
| 2026-05-07 18:23 | 60.29089 | 5.22230 | 166 ft | 11 kts | 139° |
| 2026-05-07 18:24 | 60.29065 | 5.22340 | 170 ft | 6 kts | 137° |
| 2026-05-07 18:24 | 60.29033 | 5.22386 | 171 ft | 5 kts | 121° |
| 2026-05-07 18:24 | 60.29030 | 5.22461 | 172 ft | 10 kts | 82° |
| 2026-05-07 18:24 | 60.29041 | 5.22594 | 175 ft | 8 kts | 79° |
| 2026-05-07 18:25 | 60.29044 | 5.22724 | 177 ft | 8 kts | 94° |
| 2026-05-07 18:25 | 60.29052 | 5.22818 | 179 ft | 6 kts | 45° |
| 2026-05-07 18:25 | 60.29061 | 5.22837 | 179 ft | 0 kts | 45° |
| 2026-05-07 18:25 | 60.29075 | 5.22866 | 179 ft | 6 kts | 45° |
| 2026-05-07 18:26 | 60.29081 | 5.22876 | 180 ft | 0 kts | 45° |
| 2026-05-07 18:26 | 60.29083 | 5.22881 | 180 ft | 0 kts | 44° |